sensor_id;sensor_type;location;lat;lon;timestamp;pressure;altitude;pressure_sealevel;temperature;humidity
12594;BME280;6362;50.208;9.182;2023-05-08T00:01:45;100210.09;;;13.58;68.08
12594;BME280;6362;50.208;9.182;2023-05-08T00:04:11;100212.66;;;13.60;68.20
12594;BME280;6362;50.208;9.182;2023-05-08T00:06:37;100210.22;;;13.51;68.67
12594;BME280;6362;50.208;9.182;2023-05-08T00:09:02;100210.16;;;13.54;68.87
12594;BME280;6362;50.208;9.182;2023-05-08T00:11:28;100205.88;;;13.50;68.65
12594;BME280;6362;50.208;9.182;2023-05-08T00:13:53;100198.09;;;13.43;68.99
12594;BME280;6362;50.208;9.182;2023-05-08T00:16:19;100205.94;;;13.43;68.70
12594;BME280;6362;50.208;9.182;2023-05-08T00:18:44;100198.09;;;13.43;68.96
12594;BME280;6362;50.208;9.182;2023-05-08T00:21:11;100206.94;;;13.36;69.07
12594;BME280;6362;50.208;9.182;2023-05-08T00:23:36;100209.59;;;13.33;69.18
12594;BME280;6362;50.208;9.182;2023-05-08T00:26:02;100206.22;;;13.25;69.25
12594;BME280;6362;50.208;9.182;2023-05-08T00:28:27;100204.47;;;13.27;69.28
12594;BME280;6362;50.208;9.182;2023-05-08T00:30:53;100208.00;;;13.23;69.57
12594;BME280;6362;50.208;9.182;2023-05-08T00:33:18;100207.19;;;13.16;69.64
12594;BME280;6362;50.208;9.182;2023-05-08T00:35:44;100203.75;;;13.13;69.68
12594;BME280;6362;50.208;9.182;2023-05-08T00:38:09;100204.66;;;13.09;69.59
12594;BME280;6362;50.208;9.182;2023-05-08T00:40:35;100207.31;;;13.07;69.69
12594;BME280;6362;50.208;9.182;2023-05-08T00:43:01;100209.94;;;13.06;69.68
12594;BME280;6362;50.208;9.182;2023-05-08T00:45:38;100200.44;;;13.00;69.87
12594;BME280;6362;50.208;9.182;2023-05-08T00:48:04;100197.91;;;12.95;70.05
12594;BME280;6362;50.208;9.182;2023-05-08T00:50:31;100204.88;;;12.93;70.38
12594;BME280;6362;50.208;9.182;2023-05-08T00:52:57;100207.53;;;12.90;70.29
12594;BME280;6362;50.208;9.182;2023-05-08T00:55:24;100201.47;;;12.88;70.03
12594;BME280;6362;50.208;9.182;2023-05-08T00:57:50;100198.00;;;12.86;70.16
12594;BME280;6362;50.208;9.182;2023-05-08T01:00:17;100201.53;;;12.82;70.69
12594;BME280;6362;50.208;9.182;2023-05-08T01:02:43;100202.41;;;12.83;70.31
12594;BME280;6362;50.208;9.182;2023-05-08T01:05:10;100191.09;;;12.82;70.21
12594;BME280;6362;50.208;9.182;2023-05-08T01:07:35;100198.06;;;12.83;70.46
12594;BME280;6362;50.208;9.182;2023-05-08T01:10:03;100196.31;;;12.82;70.32
12594;BME280;6362;50.208;9.182;2023-05-08T01:12:46;100195.44;;;12.82;70.31
12594;BME280;6362;50.208;9.182;2023-05-08T01:15:40;100205.81;;;12.88;69.92
12594;BME280;6362;50.208;9.182;2023-05-08T01:18:27;100207.63;;;12.83;70.09
12594;BME280;6362;50.208;9.182;2023-05-08T01:21:01;100199.75;;;12.86;70.21
12594;BME280;6362;50.208;9.182;2023-05-08T01:26:41;100209.41;;;12.79;70.19
12594;BME280;6362;50.208;9.182;2023-05-08T01:32:50;100206.78;;;12.79;70.29
12594;BME280;6362;50.208;9.182;2023-05-08T01:35:33;100212.03;;;12.79;70.25
12594;BME280;6362;50.208;9.182;2023-05-08T01:38:23;100215.53;;;12.75;70.49
12594;BME280;6362;50.208;9.182;2023-05-08T01:41:02;100220.72;;;12.78;70.44
12594;BME280;6362;50.208;9.182;2023-05-08T01:43:49;100218.19;;;12.74;69.94
12594;BME280;6362;50.208;9.182;2023-05-08T01:46:19;100216.44;;;12.71;70.28
12594;BME280;6362;50.208;9.182;2023-05-08T01:51:46;100223.41;;;12.72;70.41
12594;BME280;6362;50.208;9.182;2023-05-08T01:54:23;100227.75;;;12.73;70.05
12594;BME280;6362;50.208;9.182;2023-05-08T01:56:51;100230.38;;;12.73;70.44
12594;BME280;6362;50.208;9.182;2023-05-08T01:59:21;100224.22;;;12.79;70.12
12594;BME280;6362;50.208;9.182;2023-05-08T02:01:50;100226.88;;;12.74;69.95
12594;BME280;6362;50.208;9.182;2023-05-08T02:04:17;100234.69;;;12.74;69.95
12594;BME280;6362;50.208;9.182;2023-05-08T02:06:44;100227.72;;;12.75;69.95
12594;BME280;6362;50.208;9.182;2023-05-08T02:09:10;100235.59;;;12.73;70.04
12594;BME280;6362;50.208;9.182;2023-05-08T02:11:38;100238.22;;;12.70;70.23
12594;BME280;6362;50.208;9.182;2023-05-08T02:14:05;100235.63;;;12.68;70.72
12594;BME280;6362;50.208;9.182;2023-05-08T02:16:33;100242.63;;;12.65;70.46
12594;BME280;6362;50.208;9.182;2023-05-08T02:19:01;100244.38;;;12.64;70.59
12594;BME280;6362;50.208;9.182;2023-05-08T02:21:27;100249.59;;;12.63;70.42
12594;BME280;6362;50.208;9.182;2023-05-08T02:23:55;100246.16;;;12.61;70.67
12594;BME280;6362;50.208;9.182;2023-05-08T02:26:23;100248.72;;;12.64;70.50
12594;BME280;6362;50.208;9.182;2023-05-08T02:28:51;100248.72;;;12.64;70.77
12594;BME280;6362;50.208;9.182;2023-05-08T02:31:18;100253.09;;;12.62;70.85
12594;BME280;6362;50.208;9.182;2023-05-08T02:33:44;100252.22;;;12.63;71.15
12594;BME280;6362;50.208;9.182;2023-05-08T02:36:14;100255.75;;;12.60;70.92
12594;BME280;6362;50.208;9.182;2023-05-08T02:38:43;100253.13;;;12.59;70.70
12594;BME280;6362;50.208;9.182;2023-05-08T02:41:11;100250.50;;;12.59;71.09
12594;BME280;6362;50.208;9.182;2023-05-08T02:43:38;100259.22;;;12.58;70.76
12594;BME280;6362;50.208;9.182;2023-05-08T02:48:40;100268.78;;;12.59;70.95
12594;BME280;6362;50.208;9.182;2023-05-08T02:51:19;100261.84;;;12.56;70.97
12594;BME280;6362;50.208;9.182;2023-05-08T02:54:11;100260.13;;;12.57;71.05
12594;BME280;6362;50.208;9.182;2023-05-08T02:56:54;100262.75;;;12.54;71.14
12594;BME280;6362;50.208;9.182;2023-05-08T02:59:30;100258.38;;;12.57;71.43
12594;BME280;6362;50.208;9.182;2023-05-08T03:02:13;100263.59;;;12.54;71.15
12594;BME280;6362;50.208;9.182;2023-05-08T03:04:47;100261.03;;;12.51;71.40
12594;BME280;6362;50.208;9.182;2023-05-08T03:07:14;100267.06;;;12.58;71.51
12594;BME280;6362;50.208;9.182;2023-05-08T03:09:43;100254.06;;;12.53;71.78
12594;BME280;6362;50.208;9.182;2023-05-08T03:12:21;100257.53;;;12.54;71.37
12594;BME280;6362;50.208;9.182;2023-05-08T03:15:02;100259.31;;;12.49;71.87
12594;BME280;6362;50.208;9.182;2023-05-08T03:17:32;100257.59;;;12.48;71.70
12594;BME280;6362;50.208;9.182;2023-05-08T03:20:01;100259.31;;;12.50;71.41
12594;BME280;6362;50.208;9.182;2023-05-08T03:22:29;100265.34;;;12.54;71.19
12594;BME280;6362;50.208;9.182;2023-05-08T03:24:58;100266.28;;;12.50;71.25
12594;BME280;6362;50.208;9.182;2023-05-08T03:27:27;100261.06;;;12.48;70.98
12594;BME280;6362;50.208;9.182;2023-05-08T03:29:54;100261.88;;;12.55;70.52
12594;BME280;6362;50.208;9.182;2023-05-08T03:32:23;100262.78;;;12.51;70.48
12594;BME280;6362;50.208;9.182;2023-05-08T03:34:50;100261.94;;;12.50;70.63
12594;BME280;6362;50.208;9.182;2023-05-08T03:37:16;100256.72;;;12.50;70.69
12594;BME280;6362;50.208;9.182;2023-05-08T03:39:42;100260.22;;;12.46;71.14
12594;BME280;6362;50.208;9.182;2023-05-08T03:42:08;100263.69;;;12.47;71.26
12594;BME280;6362;50.208;9.182;2023-05-08T03:44:34;100253.16;;;12.54;70.64
12594;BME280;6362;50.208;9.182;2023-05-08T03:47:01;100260.19;;;12.51;70.66
12594;BME280;6362;50.208;9.182;2023-05-08T03:49:28;100254.94;;;12.49;71.03
12594;BME280;6362;50.208;9.182;2023-05-08T03:51:55;100254.94;;;12.52;71.25
12594;BME280;6362;50.208;9.182;2023-05-08T03:54:21;100260.19;;;12.51;71.23
12594;BME280;6362;50.208;9.182;2023-05-08T03:56:51;100255.88;;;12.47;71.54
12594;BME280;6362;50.208;9.182;2023-05-08T03:59:24;100259.34;;;12.47;71.33
12594;BME280;6362;50.208;9.182;2023-05-08T04:04:39;100260.16;;;12.49;71.49
12594;BME280;6362;50.208;9.182;2023-05-08T04:07:13;100257.63;;;12.43;71.94
12594;BME280;6362;50.208;9.182;2023-05-08T04:15:23;100262.00;;;12.41;71.90
12594;BME280;6362;50.208;9.182;2023-05-08T04:17:57;100274.19;;;12.40;72.87
12594;BME280;6362;50.208;9.182;2023-05-08T04:20:26;100275.97;;;12.38;72.43
12594;BME280;6362;50.208;9.182;2023-05-08T04:22:52;100271.56;;;12.42;72.68
12594;BME280;6362;50.208;9.182;2023-05-08T04:25:18;100280.28;;;12.39;72.64
12594;BME280;6362;50.208;9.182;2023-05-08T04:27:45;100278.56;;;12.38;72.60
12594;BME280;6362;50.208;9.182;2023-05-08T04:30:11;100276.81;;;12.37;72.39
12594;BME280;6362;50.208;9.182;2023-05-08T04:32:37;100271.63;;;12.36;72.44
12594;BME280;6362;50.208;9.182;2023-05-08T04:35:04;100275.03;;;12.42;72.96
12594;BME280;6362;50.208;9.182;2023-05-08T04:37:30;100279.41;;;12.40;72.72
12594;BME280;6362;50.208;9.182;2023-05-08T04:39:56;100271.59;;;12.37;72.69
12594;BME280;6362;50.208;9.182;2023-05-08T04:42:22;100275.06;;;12.39;72.79
12594;BME280;6362;50.208;9.182;2023-05-08T04:44:48;100280.25;;;12.42;72.70
12594;BME280;6362;50.208;9.182;2023-05-08T04:47:14;100279.41;;;12.40;72.74
12594;BME280;6362;50.208;9.182;2023-05-08T04:49:41;100285.50;;;12.39;72.26
12594;BME280;6362;50.208;9.182;2023-05-08T04:52:07;100289.78;;;12.47;71.50
12594;BME280;6362;50.208;9.182;2023-05-08T04:54:33;100297.59;;;12.47;71.04
12594;BME280;6362;50.208;9.182;2023-05-08T04:56:58;100290.63;;;12.50;71.14
12594;BME280;6362;50.208;9.182;2023-05-08T04:59:24;100299.25;;;12.57;71.44
12594;BME280;6362;50.208;9.182;2023-05-08T05:01:50;100307.94;;;12.57;71.69
12594;BME280;6362;50.208;9.182;2023-05-08T05:04:16;100313.94;;;12.65;70.67
12594;BME280;6362;50.208;9.182;2023-05-08T05:06:41;100313.94;;;12.65;71.10
12594;BME280;6362;50.208;9.182;2023-05-08T05:09:07;100319.09;;;12.73;70.64
12594;BME280;6362;50.208;9.182;2023-05-08T05:11:33;100323.44;;;12.74;70.35
12594;BME280;6362;50.208;9.182;2023-05-08T05:13:59;100326.00;;;12.76;70.32
12594;BME280;6362;50.208;9.182;2023-05-08T05:16:24;100320.81;;;12.77;70.04
12594;BME280;6362;50.208;9.182;2023-05-08T05:18:50;100328.56;;;12.83;70.27
12594;BME280;6362;50.208;9.182;2023-05-08T05:21:15;100325.91;;;12.86;70.24
12594;BME280;6362;50.208;9.182;2023-05-08T05:23:41;100331.94;;;12.91;70.21
12594;BME280;6362;50.208;9.182;2023-05-08T05:26:06;100331.09;;;12.91;70.08
12594;BME280;6362;50.208;9.182;2023-05-08T05:28:32;100329.34;;;12.91;70.21
12594;BME280;6362;50.208;9.182;2023-05-08T05:30:57;100331.00;;;12.97;69.97
12594;BME280;6362;50.208;9.182;2023-05-08T05:33:23;100342.31;;;13.01;69.99
12594;BME280;6362;50.208;9.182;2023-05-08T05:35:48;100339.66;;;13.02;69.79
12594;BME280;6362;50.208;9.182;2023-05-08T05:38:14;100338.81;;;13.02;69.73
12594;BME280;6362;50.208;9.182;2023-05-08T05:40:39;100338.75;;;13.06;70.18
12594;BME280;6362;50.208;9.182;2023-05-08T05:43:05;100348.31;;;13.07;70.18
12594;BME280;6362;50.208;9.182;2023-05-08T05:45:30;100349.25;;;13.02;70.99
12594;BME280;6362;50.208;9.182;2023-05-08T05:47:56;100353.56;;;13.04;70.66
12594;BME280;6362;50.208;9.182;2023-05-08T05:50:21;100350.06;;;13.07;70.56
12594;BME280;6362;50.208;9.182;2023-05-08T05:52:47;100356.97;;;13.12;70.28
12594;BME280;6362;50.208;9.182;2023-05-08T05:55:12;100356.91;;;13.22;70.46
12594;BME280;6362;50.208;9.182;2023-05-08T05:57:38;100355.03;;;13.31;70.25
12594;BME280;6362;50.208;9.182;2023-05-08T06:00:04;100352.41;;;13.33;69.72
12594;BME280;6362;50.208;9.182;2023-05-08T06:02:30;100351.41;;;13.43;70.04
12594;BME280;6362;50.208;9.182;2023-05-08T06:04:58;100354.88;;;13.43;70.39
12594;BME280;6362;50.208;9.182;2023-05-08T06:07:23;100348.50;;;13.66;75.74
12594;BME280;6362;50.208;9.182;2023-05-08T06:09:49;100346.28;;;13.98;75.37
12594;BME280;6362;50.208;9.182;2023-05-08T06:12:15;100345.91;;;14.23;74.30
12594;BME280;6362;50.208;9.182;2023-05-08T06:14:42;100351.09;;;14.26;71.28
12594;BME280;6362;50.208;9.182;2023-05-08T06:17:08;100341.75;;;14.65;70.70
12594;BME280;6362;50.208;9.182;2023-05-08T06:19:33;100343.03;;;14.91;68.17
12594;BME280;6362;50.208;9.182;2023-05-08T06:21:59;100347.41;;;14.90;67.79
12594;BME280;6362;50.208;9.182;2023-05-08T06:24:24;100342.88;;;15.00;68.38
12594;BME280;6362;50.208;9.182;2023-05-08T06:26:50;100358.38;;;15.11;67.48
12594;BME280;6362;50.208;9.182;2023-05-08T06:29:15;100347.88;;;15.12;66.58
12594;BME280;6362;50.208;9.182;2023-05-08T06:31:41;100345.13;;;15.18;67.41
12594;BME280;6362;50.208;9.182;2023-05-08T06:34:06;100349.41;;;15.22;66.61
12594;BME280;6362;50.208;9.182;2023-05-08T06:36:32;100358.19;;;15.21;66.07
12594;BME280;6362;50.208;9.182;2023-05-08T06:38:57;100358.34;;;15.12;65.72
12594;BME280;6362;50.208;9.182;2023-05-08T06:41:23;100351.78;;;14.90;66.71
12594;BME280;6362;50.208;9.182;2023-05-08T06:43:48;100360.09;;;14.64;66.53
12594;BME280;6362;50.208;9.182;2023-05-08T06:46:14;100355.16;;;14.45;66.02
12594;BME280;6362;50.208;9.182;2023-05-08T06:48:39;100355.44;;;14.29;68.20
12594;BME280;6362;50.208;9.182;2023-05-08T06:51:05;100364.16;;;14.26;67.46
12594;BME280;6362;50.208;9.182;2023-05-08T06:53:30;100352.16;;;14.16;67.33
12594;BME280;6362;50.208;9.182;2023-05-08T06:55:56;100357.41;;;14.13;68.21
12594;BME280;6362;50.208;9.182;2023-05-08T06:58:24;100359.19;;;14.11;68.27
12594;BME280;6362;50.208;9.182;2023-05-08T07:00:49;100356.66;;;14.05;67.55
12594;BME280;6362;50.208;9.182;2023-05-08T07:03:15;100357.53;;;14.04;68.50
12594;BME280;6362;50.208;9.182;2023-05-08T07:05:40;100351.53;;;13.97;68.31
12594;BME280;6362;50.208;9.182;2023-05-08T07:08:06;100357.59;;;13.99;68.19
12594;BME280;6362;50.208;9.182;2023-05-08T07:10:31;100360.19;;;14.02;69.01
12594;BME280;6362;50.208;9.182;2023-05-08T07:12:56;100357.53;;;14.04;69.24
12594;BME280;6362;50.208;9.182;2023-05-08T07:15:22;100359.28;;;14.03;69.22
12594;BME280;6362;50.208;9.182;2023-05-08T07:17:47;100355.75;;;14.07;69.24
12594;BME280;6362;50.208;9.182;2023-05-08T07:20:13;100358.41;;;14.06;68.59
12594;BME280;6362;50.208;9.182;2023-05-08T07:22:38;100358.47;;;14.01;68.35
12594;BME280;6362;50.208;9.182;2023-05-08T07:25:04;100362.22;;;13.82;68.69
12594;BME280;6362;50.208;9.182;2023-05-08T07:27:30;100362.09;;;13.91;68.91
12594;BME280;6362;50.208;9.182;2023-05-08T07:29:55;100364.59;;;14.00;68.83
12594;BME280;6362;50.208;9.182;2023-05-08T07:32:22;100367.19;;;14.00;68.84
12594;BME280;6362;50.208;9.182;2023-05-08T07:34:48;100367.97;;;14.07;68.73
12594;BME280;6362;50.208;9.182;2023-05-08T07:37:13;100368.00;;;14.04;68.15
12594;BME280;6362;50.208;9.182;2023-05-08T07:39:39;100374.34;;;13.89;68.13
12594;BME280;6362;50.208;9.182;2023-05-08T07:42:04;100372.53;;;13.94;68.74
12594;BME280;6362;50.208;9.182;2023-05-08T07:44:30;100375.06;;;13.97;67.77
12594;BME280;6362;50.208;9.182;2023-05-08T07:46:57;100380.16;;;14.08;68.33
12594;BME280;6362;50.208;9.182;2023-05-08T07:49:23;100385.19;;;14.21;68.51
12594;BME280;6362;50.208;9.182;2023-05-08T07:51:48;100378.16;;;14.25;67.96
12594;BME280;6362;50.208;9.182;2023-05-08T07:54:14;100384.97;;;14.35;67.72
12594;BME280;6362;50.208;9.182;2023-05-08T07:56:39;100378.69;;;14.47;67.53
12594;BME280;6362;50.208;9.182;2023-05-08T07:59:05;100384.72;;;14.52;68.02
12594;BME280;6362;50.208;9.182;2023-05-08T08:01:31;100389.66;;;14.70;67.87
12594;BME280;6362;50.208;9.182;2023-05-08T08:03:56;100388.69;;;14.76;67.63
12594;BME280;6362;50.208;9.182;2023-05-08T08:06:22;100387.81;;;14.75;67.37
12594;BME280;6362;50.208;9.182;2023-05-08T08:08:47;100392.22;;;14.73;67.60
12594;BME280;6362;50.208;9.182;2023-05-08T08:11:12;100384.94;;;14.91;66.89
12594;BME280;6362;50.208;9.182;2023-05-08T08:13:38;100392.59;;;15.01;67.53
12594;BME280;6362;50.208;9.182;2023-05-08T08:16:04;100386.22;;;15.15;68.09
12594;BME280;6362;50.208;9.182;2023-05-08T08:18:33;100396.91;;;15.04;65.38
12594;BME280;6362;50.208;9.182;2023-05-08T08:21:00;100389.91;;;15.04;65.72
12594;BME280;6362;50.208;9.182;2023-05-08T08:23:25;100390.13;;;14.92;66.08
12594;BME280;6362;50.208;9.182;2023-05-08T08:25:51;100388.91;;;15.12;65.32
12594;BME280;6362;50.208;9.182;2023-05-08T08:28:18;100393.03;;;15.25;65.19
12594;BME280;6362;50.208;9.182;2023-05-08T08:30:43;100386.09;;;15.22;66.18
12594;BME280;6362;50.208;9.182;2023-05-08T08:33:09;100385.09;;;15.29;66.16
12594;BME280;6362;50.208;9.182;2023-05-08T08:35:34;100393.03;;;15.25;66.47
12594;BME280;6362;50.208;9.182;2023-05-08T08:38:00;100381.50;;;15.34;66.54
12594;BME280;6362;50.208;9.182;2023-05-08T08:40:25;100383.94;;;15.43;67.38
12594;BME280;6362;50.208;9.182;2023-05-08T08:42:51;100377.56;;;15.54;67.32
12594;BME280;6362;50.208;9.182;2023-05-08T08:45:16;100376.38;;;15.71;66.10
12594;BME280;6362;50.208;9.182;2023-05-08T08:47:43;100373.75;;;15.72;67.08
12594;BME280;6362;50.208;9.182;2023-05-08T08:50:12;100384.97;;;15.79;66.76
12594;BME280;6362;50.208;9.182;2023-05-08T08:53:26;100380.59;;;15.79;65.67
12594;BME280;6362;50.208;9.182;2023-05-08T08:55:37;100378.72;;;15.84;66.76
12594;BME280;6362;50.208;9.182;2023-05-08T08:58:15;100384.78;;;15.87;65.57
12594;BME280;6362;50.208;9.182;2023-05-08T09:00:42;100376.78;;;15.93;65.72
12594;BME280;6362;50.208;9.182;2023-05-08T09:03:08;100367.84;;;16.01;65.60
12594;BME280;6362;50.208;9.182;2023-05-08T09:05:34;100375.63;;;16.06;64.86
12594;BME280;6362;50.208;9.182;2023-05-08T09:08:00;100381.03;;;15.98;65.09
12594;BME280;6362;50.208;9.182;2023-05-08T09:10:26;100377.25;;;16.10;63.71
12594;BME280;6362;50.208;9.182;2023-05-08T09:12:52;100379.06;;;16.08;63.86
12594;BME280;6362;50.208;9.182;2023-05-08T09:15:18;100382.19;;;16.24;63.09
12594;BME280;6362;50.208;9.182;2023-05-08T09:17:44;100382.50;;;16.12;62.52
12594;BME280;6362;50.208;9.182;2023-05-08T09:20:10;100379.03;;;16.09;62.25
12594;BME280;6362;50.208;9.182;2023-05-08T09:22:36;100384.06;;;16.19;63.13
12594;BME280;6362;50.208;9.182;2023-05-08T09:25:02;100382.34;;;16.18;62.08
12594;BME280;6362;50.208;9.182;2023-05-08T09:27:28;100383.00;;;16.27;62.84
12594;BME280;6362;50.208;9.182;2023-05-08T09:32:32;100378.88;;;16.53;62.04
12594;BME280;6362;50.208;9.182;2023-05-08T09:34:58;100387.44;;;16.59;59.92
12594;BME280;6362;50.208;9.182;2023-05-08T09:37:24;100383.94;;;16.60;60.33
12594;BME280;6362;50.208;9.182;2023-05-08T09:39:50;100392.53;;;16.67;60.16
12594;BME280;6362;50.208;9.182;2023-05-08T09:42:15;100393.44;;;16.64;59.83
12594;BME280;6362;50.208;9.182;2023-05-08T09:47:20;100388.97;;;16.71;60.88
12594;BME280;6362;50.208;9.182;2023-05-08T09:50:08;100396.06;;;16.64;60.89
12594;BME280;6362;50.208;9.182;2023-05-08T09:52:35;100397.84;;;16.64;61.85
12594;BME280;6362;50.208;9.182;2023-05-08T09:55:08;100401.09;;;16.75;59.94
12594;BME280;6362;50.208;9.182;2023-05-08T09:57:38;100404.53;;;16.79;59.54
12594;BME280;6362;50.208;9.182;2023-05-08T10:00:11;100402.34;;;16.60;59.84
12594;BME280;6362;50.208;9.182;2023-05-08T10:02:38;100414.41;;;16.68;59.84
12594;BME280;6362;50.208;9.182;2023-05-08T10:05:28;100404.97;;;16.60;60.00
12594;BME280;6362;50.208;9.182;2023-05-08T10:07:56;100412.69;;;16.67;60.92
12594;BME280;6362;50.208;9.182;2023-05-08T10:10:26;100409.66;;;16.83;60.05
12594;BME280;6362;50.208;9.182;2023-05-08T10:12:53;100413.91;;;16.89;60.90
12594;BME280;6362;50.208;9.182;2023-05-08T10:15:22;100414.50;;;16.99;60.22
12594;BME280;6362;50.208;9.182;2023-05-08T10:20:24;100415.06;;;17.11;60.57
12594;BME280;6362;50.208;9.182;2023-05-08T10:22:55;100412.84;;;17.29;60.73
12594;BME280;6362;50.208;9.182;2023-05-08T10:25:21;100425.69;;;17.39;61.31
12594;BME280;6362;50.208;9.182;2023-05-08T10:27:54;100417.81;;;17.39;61.90
12594;BME280;6362;50.208;9.182;2023-05-08T10:30:25;100425.84;;;17.64;62.70
12594;BME280;6362;50.208;9.182;2023-05-08T10:32:52;100417.38;;;17.86;59.58
12594;BME280;6362;50.208;9.182;2023-05-08T10:35:22;100415.09;;;18.03;59.71
12594;BME280;6362;50.208;9.182;2023-05-08T10:37:48;100418.41;;;18.38;58.37
12594;BME280;6362;50.208;9.182;2023-05-08T10:40:14;100414.13;;;18.62;58.32
12594;BME280;6362;50.208;9.182;2023-05-08T10:42:40;100410.31;;;18.72;59.17
12594;BME280;6362;50.208;9.182;2023-05-08T10:45:07;100410.38;;;18.95;58.11
12594;BME280;6362;50.208;9.182;2023-05-08T10:50:27;100405.63;;;19.30;54.72
12594;BME280;6362;50.208;9.182;2023-05-08T10:53:04;100403.09;;;19.52;55.43
12594;BME280;6362;50.208;9.182;2023-05-08T10:55:35;100393.31;;;19.79;53.93
12594;BME280;6362;50.208;9.182;2023-05-08T10:58:27;100397.38;;;20.10;54.47
12594;BME280;6362;50.208;9.182;2023-05-08T11:03:24;100394.47;;;20.61;51.91
12594;BME280;6362;50.208;9.182;2023-05-08T11:05:52;100393.97;;;20.73;49.10
12594;BME280;6362;50.208;9.182;2023-05-08T11:08:20;100389.09;;;21.05;48.68
12594;BME280;6362;50.208;9.182;2023-05-08T11:13:47;100387.28;;;21.46;49.44
12594;BME280;6362;50.208;9.182;2023-05-08T11:16:14;100382.22;;;21.60;49.42
12594;BME280;6362;50.208;9.182;2023-05-08T11:19:14;100373.69;;;22.29;49.32
12594;BME280;6362;50.208;9.182;2023-05-08T11:25:06;100369.88;;;22.88;46.66
12594;BME280;6362;50.208;9.182;2023-05-08T11:27:39;100375.41;;;23.34;44.51
12594;BME280;6362;50.208;9.182;2023-05-08T11:46:03;100338.25;;;22.66;44.51
12594;BME280;6362;50.208;9.182;2023-05-08T11:48:29;100325.66;;;22.35;44.74
12594;BME280;6362;50.208;9.182;2023-05-08T11:50:55;100323.97;;;22.34;44.83
12594;BME280;6362;50.208;9.182;2023-05-08T11:53:21;100323.81;;;22.55;44.96
12594;BME280;6362;50.208;9.182;2023-05-08T11:55:47;100327.63;;;22.84;43.63
12594;BME280;6362;50.208;9.182;2023-05-08T11:58:14;100326.91;;;22.80;43.97
12594;BME280;6362;50.208;9.182;2023-05-08T12:12:39;100321.13;;;23.40;42.44
12594;BME280;6362;50.208;9.182;2023-05-08T12:15:09;100326.44;;;23.07;43.23
12594;BME280;6362;50.208;9.182;2023-05-08T12:17:35;100319.81;;;22.98;43.02
12594;BME280;6362;50.208;9.182;2023-05-08T12:20:11;100318.56;;;23.38;45.23
12594;BME280;6362;50.208;9.182;2023-05-08T12:22:38;100321.31;;;23.53;42.94
12594;BME280;6362;50.208;9.182;2023-05-08T12:25:06;100318.84;;;23.97;44.17
12594;BME280;6362;50.208;9.182;2023-05-08T12:27:32;100319.97;;;24.09;43.39
12594;BME280;6362;50.208;9.182;2023-05-08T12:29:57;100323.81;;;23.87;43.00
12594;BME280;6362;50.208;9.182;2023-05-08T12:32:23;100318.19;;;23.93;42.58
12594;BME280;6362;50.208;9.182;2023-05-08T12:34:48;100322.38;;;23.82;42.84
12594;BME280;6362;50.208;9.182;2023-05-08T12:37:26;100318.00;;;23.81;42.02
12594;BME280;6362;50.208;9.182;2023-05-08T12:39:51;100315.09;;;23.85;41.79
12594;BME280;6362;50.208;9.182;2023-05-08T12:42:17;100319.22;;;23.75;42.72
12594;BME280;6362;50.208;9.182;2023-05-08T12:44:49;100321.25;;;23.86;42.31
12594;BME280;6362;50.208;9.182;2023-05-08T12:47:17;100313.56;;;23.81;42.84
12594;BME280;6362;50.208;9.182;2023-05-08T12:49:43;100317.06;;;23.82;43.24
12594;BME280;6362;50.208;9.182;2023-05-08T12:52:12;100321.44;;;23.67;44.11
12594;BME280;6362;50.208;9.182;2023-05-08T12:54:40;100315.28;;;23.82;44.87
12594;BME280;6362;50.208;9.182;2023-05-08T12:57:11;100320.25;;;23.73;45.31
12594;BME280;6362;50.208;9.182;2023-05-08T12:59:37;100322.53;;;23.14;46.49
12594;BME280;6362;50.208;9.182;2023-05-08T13:02:03;100329.97;;;22.55;48.05
12594;BME280;6362;50.208;9.182;2023-05-08T13:04:28;100330.06;;;22.88;47.82
12594;BME280;6362;50.208;9.182;2023-05-08T13:06:55;100330.66;;;22.76;47.74
12594;BME280;6362;50.208;9.182;2023-05-08T13:09:21;100329.34;;;22.50;48.75
12594;BME280;6362;50.208;9.182;2023-05-08T13:11:48;100335.00;;;22.25;48.77
12594;BME280;6362;50.208;9.182;2023-05-08T13:14:14;100335.22;;;22.21;48.61
12594;BME280;6362;50.208;9.182;2023-05-08T13:16:45;100329.19;;;22.00;49.52
12594;BME280;6362;50.208;9.182;2023-05-08T13:19:16;100323.69;;;21.67;49.99
12594;BME280;6362;50.208;9.182;2023-05-08T13:21:42;100327.63;;;21.58;50.71
12594;BME280;6362;50.208;9.182;2023-05-08T13:24:15;100323.47;;;21.52;50.49
12594;BME280;6362;50.208;9.182;2023-05-08T13:26:40;100328.69;;;21.54;50.53
12594;BME280;6362;50.208;9.182;2023-05-08T13:29:06;100318.66;;;21.42;50.93
12594;BME280;6362;50.208;9.182;2023-05-08T13:31:31;100323.28;;;21.38;51.14
12594;BME280;6362;50.208;9.182;2023-05-08T13:33:57;100316.75;;;21.25;51.09
12594;BME280;6362;50.208;9.182;2023-05-08T13:36:22;100318.53;;;21.45;50.53
12594;BME280;6362;50.208;9.182;2023-05-08T13:38:49;100315.19;;;21.21;53.65
12594;BME280;6362;50.208;9.182;2023-05-08T13:41:24;100315.53;;;21.13;52.46
12594;BME280;6362;50.208;9.182;2023-05-08T13:43:49;100309.75;;;21.05;52.23
12594;BME280;6362;50.208;9.182;2023-05-08T13:46:15;100306.81;;;21.11;51.54
12594;BME280;6362;50.208;9.182;2023-05-08T13:48:40;100305.06;;;21.30;52.02
12594;BME280;6362;50.208;9.182;2023-05-08T13:51:06;100294.22;;;21.37;51.59
12594;BME280;6362;50.208;9.182;2023-05-08T13:53:31;100295.00;;;21.39;52.28
12594;BME280;6362;50.208;9.182;2023-05-08T13:55:57;100284.56;;;21.54;51.33
12594;BME280;6362;50.208;9.182;2023-05-08T13:58:22;100285.72;;;21.49;52.01
12594;BME280;6362;50.208;9.182;2023-05-08T14:00:47;100285.47;;;21.53;51.69
12594;BME280;6362;50.208;9.182;2023-05-08T14:03:14;100294.91;;;21.59;51.32
12594;BME280;6362;50.208;9.182;2023-05-08T14:05:39;100294.22;;;21.55;51.11
12594;BME280;6362;50.208;9.182;2023-05-08T14:08:04;100298.22;;;21.45;52.20
12594;BME280;6362;50.208;9.182;2023-05-08T14:10:30;100287.72;;;21.63;51.85
12594;BME280;6362;50.208;9.182;2023-05-08T14:12:55;100282.91;;;21.52;51.73